Time;durP1;ratioP1;P1;durP2;ratioP2;P2;SDS_P1;SDS_P2;PMS_P1;PMS_P2;Temp;Humidity;BMP_temperature;BMP_pressure;BME280_temperature;BME280_humidity;BME280_pressure;Samples;Min_cycle;Max_cycle;Signal;HPM_P1;HPM_P2
2023/07/20 00:02:07;;;;;;;5.60;4.93;;;;;;;-145.94;66.83;76290.59;5113737;28;20205;-69
2023/07/20 00:04:33;;;;;;;6.40;4.73;;;;;;;-145.94;67.34;76294.66;5113761;28;20296;-69
2023/07/20 00:07:03;;;;;;;7.63;4.90;;;;;;;-145.94;66.97;76284.47;5113746;28;20185;-69
2023/07/20 00:09:29;;;;;;;5.00;4.80;;;;;;;-145.94;67.00;76292.63;5113651;28;20209;-69
2023/07/20 00:11:56;;;;;;;4.63;4.53;;;;;;;-145.94;67.27;76284.47;5113632;28;20253;-69
2023/07/20 00:14:22;;;;;;;5.90;4.90;;;;;;;-145.94;67.10;76274.28;5113933;28;20192;-69
2023/07/20 00:16:57;;;;;;;5.17;4.90;;;;;;;-145.94;66.94;76280.38;5113659;28;20197;-69
2023/07/20 00:19:26;;;;;;;5.03;4.83;;;;;;;-145.94;66.80;76270.19;5113946;28;20192;-69
2023/07/20 00:21:54;;;;;;;4.97;4.93;;;;;;;-145.94;67.45;76272.22;5113524;28;20208;-70
2023/07/20 00:24:20;;;;;;;4.97;4.60;;;;;;;-145.94;66.99;76274.28;5113556;28;20651;-70
2023/07/20 00:26:47;;;;;;;6.20;5.23;;;;;;;-145.94;67.11;76276.31;5113564;28;20181;-70
2023/07/20 00:29:14;;;;;;;5.90;5.50;;;;;;;-145.94;67.57;76276.31;5113636;28;20201;-70
2023/07/20 00:31:41;;;;;;;5.97;5.57;;;;;;;-145.94;67.60;76278.34;5113992;28;20205;-70
2023/07/20 00:34:07;;;;;;;6.20;5.80;;;;;;;-145.94;67.97;76276.31;5113496;28;20596;-70
2023/07/20 00:36:34;;;;;;;6.87;6.37;;;;;;;-145.94;67.45;76268.16;5114021;28;20696;-70
2023/07/20 00:39:02;;;;;;;11.17;6.07;;;;;;;-145.94;67.71;76268.16;5095440;28;20196;-70
2023/07/20 00:41:29;;;;;;;5.83;5.63;;;;;;;-145.94;68.15;76270.19;5113375;28;20185;-70
2023/07/20 00:43:56;;;;;;;6.80;6.30;;;;;;;-145.94;68.45;76282.44;5095200;28;20234;-70
2023/07/20 00:46:24;;;;;;;6.20;5.90;;;;;;;-145.94;67.91;76278.34;5095396;28;20189;-70
2023/07/20 00:48:52;;;;;;;7.47;6.23;;;;;;;-145.94;68.30;76270.19;5113209;28;20191;-70
2023/07/20 00:51:21;;;;;;;6.27;5.87;;;;;;;-145.94;68.02;76280.38;5113279;28;20238;-70
2023/07/20 00:53:47;;;;;;;6.13;5.90;;;;;;;-145.94;68.02;76282.44;5095367;28;20594;-70
2023/07/20 00:56:15;;;;;;;5.67;5.43;;;;;;;-145.94;68.31;76278.34;5113502;28;20658;-70
2023/07/20 00:58:42;;;;;;;5.83;5.73;;;;;;;-145.94;68.72;76290.59;5113279;28;20182;-70
2023/07/20 01:01:09;;;;;;;5.40;5.07;;;;;;;-145.94;68.66;76286.50;5113259;28;20187;-70
2023/07/20 01:03:36;;;;;;;6.93;6.47;;;;;;;-145.94;68.87;76286.50;5113149;28;20698;-70
2023/07/20 01:06:36;;;;;;;6.03;5.73;;;;;;;-145.94;68.82;76290.59;5094965;28;20232;-70
2023/07/20 01:09:24;;;;;;;6.27;5.90;;;;;;;-145.94;69.00;76284.47;5112944;28;20196;-70
2023/07/20 01:12:05;;;;;;;8.97;6.73;;;;;;;-145.94;68.89;76290.59;5098149;28;20209;-70
2023/07/20 01:14:32;;;;;;;6.37;6.13;;;;;;;-145.94;68.98;76288.53;5117194;28;20173;-70
2023/07/20 01:16:58;;;;;;;6.50;6.03;;;;;;;-145.94;69.20;76286.50;5117370;28;20186;-70
2023/07/20 01:19:25;;;;;;;7.90;7.27;;;;;;;-145.94;69.30;76280.38;5116846;28;20211;-69
2023/07/20 01:22:01;;;;;;;6.80;6.40;;;;;;;-145.94;68.43;76278.34;5098636;28;20217;-70
2023/07/20 01:24:34;;;;;;;7.47;7.10;;;;;;;-145.94;68.65;76280.38;5116986;28;20177;-70
2023/07/20 01:27:32;;;;;;;7.27;6.97;;;;;;;-145.94;68.63;76276.31;5116976;28;20578;-69
2023/07/20 01:30:15;;;;;;;7.90;7.53;;;;;;;-145.94;68.65;76272.22;5116752;28;20217;-69
2023/07/20 01:32:44;;;;;;;7.23;6.70;;;;;;;-145.94;68.47;76270.19;5116755;28;20208;-69
2023/07/20 01:35:14;;;;;;;6.80;6.70;;;;;;;-145.94;68.82;76280.38;5098136;28;20735;-69
2023/07/20 01:37:44;;;;;;;7.23;7.03;;;;;;;-145.94;68.63;76282.44;5098144;28;20280;-69
2023/07/20 01:40:13;;;;;;;6.73;6.53;;;;;;;-145.94;69.02;76282.44;5116665;28;20177;-69
2023/07/20 01:42:45;;;;;;;8.40;7.90;;;;;;;-145.94;68.65;76294.66;5116902;28;20209;-69
2023/07/20 01:45:11;;;;;;;8.67;7.60;;;;;;;-145.94;68.87;76280.38;5116305;28;20230;-69
2023/07/20 01:47:38;;;;;;;8.97;7.77;;;;;;;-145.94;69.01;76288.53;5097941;28;20197;-69
2023/07/20 01:50:05;;;;;;;7.83;7.10;;;;;;;-145.94;68.71;76278.34;5097834;28;20204;-69
2023/07/20 01:52:32;;;;;;;8.37;7.27;;;;;;;-145.94;68.67;76286.50;5097845;28;20205;-69
2023/07/20 01:54:58;;;;;;;6.83;6.33;;;;;;;-145.94;69.07;76276.31;5097901;28;20193;-69
2023/07/20 01:57:25;;;;;;;7.27;6.73;;;;;;;-145.94;68.50;76278.34;5116374;28;20602;-69
2023/07/20 01:59:51;;;;;;;7.73;7.43;;;;;;;-145.94;69.39;76280.38;5097774;28;20192;-69
2023/07/20 02:02:18;;;;;;;6.27;6.13;;;;;;;-145.94;69.48;76286.50;5097942;28;20237;-69
2023/07/20 02:04:44;;;;;;;6.07;5.87;;;;;;;-145.94;69.45;76280.38;5115924;28;20720;-69
2023/07/20 02:07:11;;;;;;;6.63;6.33;;;;;;;-145.94;69.86;76284.47;5097552;28;20627;-69
2023/07/20 02:09:37;;;;;;;8.17;7.70;;;;;;;-145.94;69.62;76272.22;5097525;28;20220;-69
2023/07/20 02:12:07;;;;;;;7.97;7.60;;;;;;;-145.94;69.69;76272.22;5097430;28;20244;-69
2023/07/20 02:14:33;;;;;;;11.13;7.80;;;;;;;-145.94;69.39;76262.03;5098396;28;20336;-70
2023/07/20 02:17:01;;;;;;;9.87;9.17;;;;;;;-145.94;70.40;76284.47;5097414;28;20201;-71
2023/07/20 02:19:28;;;;;;;9.30;8.60;;;;;;;-145.94;70.68;76298.72;5115632;28;20177;-71
2023/07/20 02:21:54;;;;;;;8.60;8.00;;;;;;;-145.94;71.18;76304.84;5115136;28;20254;-72
2023/07/20 02:24:21;;;;;;;9.53;8.53;;;;;;;-145.94;71.51;76308.94;5115763;28;20238;-72
2023/07/20 02:26:47;;;;;;;12.30;10.57;;;;;;;-145.94;71.18;76310.97;5115785;28;20585;-72
2023/07/20 02:29:14;;;;;;;12.03;10.90;;;;;;;-145.94;71.54;76308.94;5097722;28;20189;-72
2023/07/20 02:31:42;;;;;;;10.73;9.57;;;;;;;-145.94;72.31;76315.03;5115333;28;20213;-72
2023/07/20 02:34:09;;;;;;;9.20;8.53;;;;;;;-145.94;72.42;76331.34;5097034;28;20181;-72
2023/07/20 02:36:36;;;;;;;9.03;8.43;;;;;;;-145.94;72.94;76339.50;5115282;28;20186;-72
2023/07/20 02:39:03;;;;;;;12.40;9.07;;;;;;;-145.94;73.02;76345.63;5115213;28;20196;-71
2023/07/20 02:41:31;;;;;;;11.67;9.53;;;;;;;-145.94;73.27;76349.72;5096858;28;20209;-71
2023/07/20 02:43:57;;;;;;;10.47;9.60;;;;;;;-145.94;73.96;76357.88;5096836;28;20197;-71
2023/07/20 02:46:24;;;;;;;9.83;9.27;;;;;;;-145.94;73.94;76357.88;5096824;28;20238;-71
2023/07/20 02:48:51;;;;;;;10.90;9.53;;;;;;;-145.94;74.38;76345.63;5115248;28;20185;-71
2023/07/20 02:51:17;;;;;;;12.23;10.07;;;;;;;-145.94;74.51;76349.72;5115196;28;20262;-71
2023/07/20 02:53:43;;;;;;;10.77;9.90;;;;;;;-145.94;74.79;76355.81;5115184;28;20212;-72
2023/07/20 02:56:10;;;;;;;10.07;9.27;;;;;;;-145.94;74.79;76363.97;5115474;28;20180;-72
2023/07/20 02:58:43;;;;;;;9.33;8.53;;;;;;;-145.94;74.90;76376.22;5096613;28;20189;-72
2023/07/20 03:01:10;;;;;;;9.73;9.03;;;;;;;-145.94;74.90;76376.22;5115396;28;20178;-72
2023/07/20 03:03:38;;;;;;;11.00;10.00;;;;;;;-145.94;75.65;76368.06;5113396;28;20205;-72
2023/07/20 03:06:05;;;;;;;13.23;9.17;;;;;;;-145.94;75.24;76374.19;5096440;28;20659;-72
2023/07/20 03:08:32;;;;;;;15.40;9.83;;;;;;;-145.94;75.86;76372.13;5096436;28;20214;-72
2023/07/20 03:10:58;;;;;;;11.50;10.50;;;;;;;-145.94;75.66;76378.25;5115098;28;20205;-72
2023/07/20 03:13:25;;;;;;;15.73;10.77;;;;;;;-145.94;76.04;76386.41;5096267;28;20213;-72
2023/07/20 03:15:53;;;;;;;10.83;10.03;;;;;;;-145.94;76.18;76384.38;5096234;28;20189;-72
2023/07/20 03:18:19;;;;;;;11.67;10.57;;;;;;;-145.94;76.10;76382.34;5113133;28;20200;-72
2023/07/20 03:20:46;;;;;;;14.40;10.23;;;;;;;-145.94;76.00;76376.22;5114468;28;20227;-72
2023/07/20 03:23:12;;;;;;;12.43;11.40;;;;;;;-145.94;76.07;76384.38;5114346;28;20208;-72
2023/07/20 03:25:39;;;;;;;19.20;11.30;;;;;;;-145.94;75.80;76384.38;5114340;28;20254;-72
2023/07/20 03:28:06;;;;;;;15.40;10.97;;;;;;;-145.94;76.28;76392.53;5096284;28;20189;-72
2023/07/20 03:30:32;;;;;;;12.53;11.43;;;;;;;-145.94;76.01;76396.59;5095938;28;20213;-72
2023/07/20 03:32:59;;;;;;;16.93;12.13;;;;;;;-145.94;76.35;76398.66;5095995;28;20209;-72
2023/07/20 03:35:25;;;;;;;19.70;12.40;;;;;;;-145.94;76.88;76400.69;5095872;28;20674;-72
2023/07/20 03:37:52;;;;;;;18.07;13.03;;;;;;;-145.94;77.00;76404.75;5095953;28;20189;-72
2023/07/20 03:40:18;;;;;;;15.73;12.53;;;;;;;-145.94;76.89;76414.94;5114424;28;20181;-72
2023/07/20 03:42:45;;;;;;;18.83;13.60;;;;;;;-145.94;76.92;76412.91;5095753;28;20686;-72
2023/07/20 03:45:12;;;;;;;19.60;13.63;;;;;;;-145.94;76.90;76406.81;5112793;28;20288;-72
2023/07/20 03:47:40;;;;;;;15.90;13.70;;;;;;;-145.94;77.22;76414.94;5114591;28;20201;-72
2023/07/20 03:50:07;;;;;;;22.43;14.97;;;;;;;-145.94;77.10;76412.91;5112623;28;20212;-71
2023/07/20 03:52:33;;;;;;;19.73;14.10;;;;;;;-145.94;77.23;76414.94;5112903;28;20611;-71
2023/07/20 03:54:59;;;;;;;23.70;15.67;;;;;;;-145.94;76.76;76410.88;5112629;28;20193;-71
2023/07/20 03:57:26;;;;;;;21.60;15.47;;;;;;;-145.94;76.83;76408.84;5114188;28;20189;-71
2023/07/20 03:59:52;;;;;;;25.70;14.70;;;;;;;-145.94;76.93;76417.00;5113831;28;20264;-71
2023/07/20 04:02:19;;;;;;;19.23;14.37;;;;;;;-145.94;76.45;76429.22;5113792;28;20213;-71
2023/07/20 04:04:45;;;;;;;20.60;15.10;;;;;;;-145.94;76.74;76427.19;5113800;28;20317;-71
2023/07/20 04:07:12;;;;;;;21.90;14.90;;;;;;;-145.94;76.47;76431.28;5095509;28;20667;-71
2023/07/20 04:09:41;;;;;;;18.57;15.03;;;;;;;-145.94;76.65;76425.16;5113692;28;20217;-71
2023/07/20 04:12:08;;;;;;;15.20;13.53;;;;;;;-145.94;76.81;76433.31;5095458;28;20258;-71
2023/07/20 04:14:34;;;;;;;19.17;14.37;;;;;;;-145.94;77.04;76423.13;5095427;28;20200;-71
2023/07/20 04:17:01;;;;;;;14.33;13.00;;;;;;;-145.94;76.72;76431.28;5113654;28;20234;-71
2023/07/20 04:19:27;;;;;;;13.43;12.23;;;;;;;-145.94;76.38;76441.47;5113601;28;20264;-71
2023/07/20 04:21:53;;;;;;;13.53;12.43;;;;;;;-145.94;76.61;76437.38;5113559;28;20617;-70
2023/07/20 04:24:20;;;;;;;14.13;12.70;;;;;;;-145.94;76.80;76439.41;5095351;28;20185;-70
2023/07/20 04:26:47;;;;;;;13.73;12.03;;;;;;;-145.94;76.27;76433.31;5095278;28;20238;-70
2023/07/20 04:29:13;;;;;;;12.60;11.23;;;;;;;-145.94;76.47;76433.31;5095223;28;20193;-70
2023/07/20 04:31:42;;;;;;;12.27;10.87;;;;;;;-145.94;76.43;76435.34;5112652;28;20220;-71
2023/07/20 04:34:10;;;;;;;11.43;10.70;;;;;;;-145.94;76.76;76431.28;5095190;28;20329;-71
2023/07/20 04:36:37;;;;;;;12.73;11.60;;;;;;;-145.94;76.49;76427.19;5095204;28;20211;-71
2023/07/20 04:39:04;;;;;;;14.63;12.63;;;;;;;-145.94;75.89;76441.47;5095174;28;20196;-71
2023/07/20 04:41:42;;;;;;;12.97;11.90;;;;;;;-145.94;75.94;76457.78;5095146;28;20209;-71
2023/07/20 04:44:09;;;;;;;13.17;12.10;;;;;;;-145.94;75.66;76461.84;5112099;28;20193;-71
2023/07/20 04:46:35;;;;;;;12.80;11.30;;;;;;;-145.94;76.00;76463.88;5116561;28;20192;-71
2023/07/20 04:49:03;;;;;;;13.67;12.33;;;;;;;-145.94;76.03;76472.03;5099675;28;20193;-71
2023/07/20 04:51:33;;;;;;;18.60;12.87;;;;;;;-145.94;75.94;76472.03;5099215;28;20209;-71
2023/07/20 04:54:00;;;;;;;13.93;12.40;;;;;;;-145.94;75.76;76476.13;5099002;28;20231;-71
2023/07/20 04:56:31;;;;;;;13.27;11.83;;;;;;;-145.94;76.04;76476.13;5099770;28;20193;-71
2023/07/20 04:58:58;;;;;;;16.83;11.70;;;;;;;-145.94;75.99;76478.16;5098956;28;20208;-71
2023/07/20 05:01:26;;;;;;;12.80;11.60;;;;;;;-145.94;76.37;76478.16;5115761;28;20196;-71
2023/07/20 05:03:53;;;;;;;12.93;11.93;;;;;;;-145.94;75.86;76476.13;5099003;28;20228;-71
2023/07/20 05:06:20;;;;;;;19.60;11.77;;;;;;;-145.94;76.25;76476.13;5099056;28;20215;-71
2023/07/20 05:08:47;;;;;;;12.27;11.47;;;;;;;-145.94;76.51;76476.13;5099040;28;20196;-71
2023/07/20 05:11:14;;;;;;;11.63;10.57;;;;;;;-145.94;76.15;76480.19;5098619;28;20254;-70
2023/07/20 05:13:41;;;;;;;12.20;11.30;;;;;;;-145.94;76.05;76478.16;5098556;28;20649;-71
2023/07/20 05:16:08;;;;;;;10.50;9.60;;;;;;;-145.94;76.01;76480.19;5098684;28;20193;-71
2023/07/20 05:18:34;;;;;;;11.47;10.77;;;;;;;-145.94;76.08;76476.13;5098518;28;20181;-71
2023/07/20 05:21:01;;;;;;;13.07;10.00;;;;;;;-145.94;75.53;76482.25;5098489;28;20185;-71
2023/07/20 05:23:28;;;;;;;10.50;9.73;;;;;;;-145.94;75.43;76478.16;5115431;28;20212;-71
2023/07/20 05:25:56;;;;;;;10.10;9.50;;;;;;;-145.94;75.89;76484.28;5098365;28;20197;-71
2023/07/20 05:28:23;;;;;;;10.60;9.63;;;;;;;-145.94;75.90;76476.13;5116625;28;20579;-71
2023/07/20 05:30:52;;;;;;;9.67;8.70;;;;;;;-145.94;75.57;76476.13;5116600;28;20266;-71
2023/07/20 05:33:20;;;;;;;9.83;9.00;;;;;;;-145.94;75.49;76478.16;5116406;28;20266;-71
2023/07/20 05:35:47;;;;;;;8.83;8.33;;;;;;;-145.94;75.63;76484.28;5116551;28;20212;-71
2023/07/20 05:38:14;;;;;;;9.03;8.43;;;;;;;-145.94;75.44;76482.25;5116424;28;20189;-71
2023/07/20 05:40:44;;;;;;;10.00;9.47;;;;;;;-145.94;75.48;76480.19;5116967;28;20226;-71
2023/07/20 05:43:11;;;;;;;8.87;8.57;;;;;;;-145.94;75.68;76482.25;5116378;28;20250;-71
2023/07/20 05:45:41;;;;;;;8.47;8.07;;;;;;;-145.94;75.09;76484.28;5116273;28;20516;-71
2023/07/20 05:48:11;;;;;;;7.90;7.60;;;;;;;-145.94;75.16;76478.16;5116157;28;20185;-71
2023/07/20 05:50:41;;;;;;;8.23;7.73;;;;;;;-145.94;74.96;76482.25;5116085;28;20200;-71
2023/07/20 05:53:08;;;;;;;9.40;8.90;;;;;;;-145.94;74.81;76486.31;5116148;28;20217;-70
2023/07/20 05:55:34;;;;;;;8.53;7.70;;;;;;;-145.94;74.02;76476.13;5098094;28;20185;-70
2023/07/20 05:58:00;;;;;;;9.27;8.70;;;;;;;-145.94;74.04;76472.03;5115157;28;20230;-70
2023/07/20 06:00:27;;;;;;;8.53;8.13;;;;;;;-145.94;73.86;76476.13;5116552;28;20193;-70
2023/07/20 06:02:54;;;;;;;8.77;8.27;;;;;;;-145.94;74.00;76463.88;5115906;28;20209;-71
2023/07/20 06:05:23;;;;;;;8.10;7.90;;;;;;;-145.94;73.91;76453.69;5116144;28;20194;-70
2023/07/20 06:07:54;;;;;;;9.27;8.73;;;;;;;-145.94;73.42;76449.63;5116200;28;20170;-70
2023/07/20 06:10:21;;;;;;;9.30;8.90;;;;;;;-145.94;73.28;76451.66;5115717;28;20189;-70
2023/07/20 06:12:47;;;;;;;7.77;7.37;;;;;;;-145.94;73.16;76441.47;5097735;28;20209;-70
2023/07/20 06:15:28;;;;;;;6.67;6.47;;;;;;;-145.94;72.68;76451.66;5116320;28;20512;-70
2023/07/20 06:17:56;;;;;;;7.70;7.10;;;;;;;-145.94;72.95;76445.53;5115991;28;20223;-70
2023/07/20 06:20:23;;;;;;;8.13;7.80;;;;;;;-145.94;72.92;76435.34;5115586;28;20253;-70
2023/07/20 06:22:50;;;;;;;7.20;6.80;;;;;;;-145.94;71.65;76435.34;5116035;28;20212;-70
2023/07/20 06:25:16;;;;;;;8.20;7.50;;;;;;;-145.94;71.56;76433.31;5115535;28;20192;-70
2023/07/20 06:27:44;;;;;;;6.97;6.67;;;;;;;-145.94;72.00;76425.16;5115727;28;20185;-70
2023/07/20 06:30:11;;;;;;;6.27;6.07;;;;;;;-145.94;71.08;76435.34;5115589;28;20196;-70
2023/07/20 06:32:39;;;;;;;5.90;5.73;;;;;;;-145.94;70.79;76425.16;5115199;28;20687;-70
2023/07/20 06:35:06;;;;;;;5.60;5.50;;;;;;;-145.94;71.03;76439.41;5115582;28;20272;-70
2023/07/20 06:37:32;;;;;;;6.10;5.93;;;;;;;-145.94;71.03;76429.22;5115510;28;20177;-70
2023/07/20 06:39:59;;;;;;;6.10;5.90;;;;;;;-145.94;71.24;76431.28;5115512;28;20550;-70
2023/07/20 06:42:28;;;;;;;5.40;5.30;;;;;;;-145.94;70.72;76435.34;5115590;28;20208;-70
2023/07/20 06:45:16;;;;;;;6.27;5.97;;;;;;;-145.94;70.21;76441.47;5115735;28;20183;-70
2023/07/20 06:47:42;;;;;;;6.20;5.80;;;;;;;-145.94;70.30;76417.00;5115075;28;20186;-70
2023/07/20 06:50:10;;;;;;;6.67;6.57;;;;;;;-145.94;70.37;76423.13;5115889;28;20585;-70
2023/07/20 06:52:42;;;;;;;13.40;12.20;;;;;;;-145.94;68.96;76425.16;5114870;28;20217;-70
2023/07/20 06:55:09;;;;;;;6.87;6.57;;;;;;;-145.94;69.28;76412.91;5115250;28;20181;-70
2023/07/20 06:57:36;;;;;;;6.67;6.40;;;;;;;-145.94;68.88;76431.28;5115142;28;20246;-71
2023/07/20 07:00:04;;;;;;;6.57;6.37;;;;;;;-145.94;69.41;76435.34;5114830;28;20188;-71
2023/07/20 07:02:30;;;;;;;6.47;6.17;;;;;;;-145.94;69.47;76439.41;5115050;28;20216;-71
2023/07/20 07:04:57;;;;;;;7.30;6.47;;;;;;;-145.94;69.37;76441.47;5114754;28;20189;-71
2023/07/20 07:07:43;;;;;;;8.03;7.77;;;;;;;-145.94;69.66;76435.34;5114797;28;20195;-71
2023/07/20 07:10:09;;;;;;;9.87;8.93;;;;;;;-145.94;69.31;76427.19;5114781;28;20655;-70
2023/07/20 07:12:36;;;;;;;13.47;12.17;;;;;;;-145.94;67.66;76435.34;5114746;28;20220;-70
2023/07/20 07:15:06;;;;;;;8.33;8.00;;;;;;;-145.94;66.73;76423.13;5114706;28;20189;-70
2023/07/20 07:17:32;;;;;;;6.93;6.73;;;;;;;-145.94;66.90;76427.19;5114754;28;20185;-70
2023/07/20 07:20:00;;;;;;;6.10;6.00;;;;;;;-145.94;66.81;76433.31;5114814;28;20177;-70
2023/07/20 07:22:26;;;;;;;6.50;6.40;;;;;;;-145.94;67.88;76431.28;5114575;28;20621;-71
2023/07/20 07:24:53;;;;;;;7.90;7.67;;;;;;;-145.94;67.50;76433.31;5114679;28;20181;-70
2023/07/20 07:27:20;;;;;;;17.43;15.57;;;;;;;-145.94;66.78;76421.06;5114675;28;20177;-70
2023/07/20 07:29:48;;;;;;;13.43;12.23;;;;;;;-145.94;66.52;76419.03;5114527;28;20600;-69
2023/07/20 07:32:15;;;;;;;12.67;11.43;;;;;;;-145.94;66.81;76421.06;5114424;28;20216;-70
2023/07/20 07:34:41;;;;;;;9.07;8.20;;;;;;;-145.94;66.85;76423.13;5114488;28;20720;-70
2023/07/20 07:37:08;;;;;;;8.30;7.80;;;;;;;-145.94;67.61;76419.03;5114383;28;20200;-70
2023/07/20 07:39:34;;;;;;;14.30;13.03;;;;;;;-145.94;66.73;76433.31;5114167;28;20185;-70
2023/07/20 07:42:01;;;;;;;13.27;12.20;;;;;;;-145.94;66.20;76437.38;5114253;28;20201;-70
2023/07/20 07:44:28;;;;;;;9.70;9.30;;;;;;;-145.94;66.10;76437.38;5114073;28;20192;-70
2023/07/20 07:46:54;;;;;;;8.10;7.90;;;;;;;-145.94;67.10;76443.50;5114553;28;20198;-70
2023/07/20 07:49:21;;;;;;;6.40;6.30;;;;;;;-145.94;66.20;76447.56;5114582;28;20182;-70
2023/07/20 07:51:48;;;;;;;6.20;6.00;;;;;;;-145.94;65.19;76445.53;5095584;28;20691;-70
2023/07/20 07:54:14;;;;;;;5.13;5.03;;;;;;;-145.94;65.08;76437.38;5114233;28;20178;-69
2023/07/20 07:56:41;;;;;;;4.20;4.10;;;;;;;-145.94;65.10;76419.03;5113889;28;20235;-69
2023/07/20 07:59:08;;;;;;;4.83;4.73;;;;;;;-145.94;65.61;76392.53;5113824;28;20234;-69
2023/07/20 08:01:34;;;;;;;5.33;5.03;;;;;;;-145.94;64.79;76390.50;5113974;28;20620;-70
2023/07/20 08:04:01;;;;;;;5.93;5.53;;;;;;;-145.94;64.52;76386.41;5113789;28;20246;-70
2023/07/20 08:06:28;;;;;;;3.60;3.60;;;;;;;-145.94;64.25;76370.09;5114326;28;20185;-69
2023/07/20 08:08:54;;;;;;;3.43;3.33;;;;;;;-145.94;63.02;76388.44;5114042;28;20174;-69
2023/07/20 08:11:20;;;;;;;3.30;3.30;;;;;;;-145.94;63.79;76398.66;5113599;28;20209;-70
2023/07/20 08:13:47;;;;;;;4.83;4.20;;;;;;;-145.94;63.29;76406.81;5114565;28;20569;-69
2023/07/20 08:16:14;;;;;;;3.97;3.87;;;;;;;-145.94;63.62;76404.75;5113891;28;20163;-69
2023/07/20 08:18:40;;;;;;;5.03;3.23;;;;;;;-145.94;64.45;76394.56;5113636;28;20232;-69
2023/07/20 08:21:07;;;;;;;3.57;3.57;;;;;;;-145.94;62.63;76406.81;5116158;28;20259;-69
2023/07/20 08:23:34;;;;;;;2.70;2.70;;;;;;;-145.94;61.88;76398.66;5117791;28;20254;-69
2023/07/20 08:26:01;;;;;;;3.73;3.73;;;;;;;-145.94;61.00;76400.69;5118372;28;20215;-69
2023/07/20 08:28:29;;;;;;;4.57;4.10;;;;;;;-145.94;61.75;76404.75;5117777;28;20185;-69
2023/07/20 08:30:55;;;;;;;3.70;3.60;;;;;;;-145.94;62.02;76400.69;5117784;28;20188;-69
2023/07/20 08:33:23;;;;;;;4.00;4.00;;;;;;;-145.94;61.03;76408.84;5117672;28;20760;-70
2023/07/20 08:35:49;;;;;;;3.57;3.57;;;;;;;-145.94;61.44;76412.91;5118206;28;20237;-69
2023/07/20 08:38:16;;;;;;;3.27;3.27;;;;;;;-145.94;61.53;76408.84;5117615;28;20242;-69
2023/07/20 08:40:45;;;;;;;3.43;3.43;;;;;;;-145.94;61.75;76414.94;5117829;28;20186;-69
2023/07/20 08:43:12;;;;;;;3.50;3.50;;;;;;;-145.94;61.97;76402.72;5117749;28;20609;-69
2023/07/20 08:45:40;;;;;;;2.87;2.87;;;;;;;-145.94;60.59;76392.53;5117807;28;20185;-69
2023/07/20 08:48:08;;;;;;;2.53;2.53;;;;;;;-145.94;60.30;76386.41;5117354;28;20181;-69
2023/07/20 08:50:35;;;;;;;2.27;2.10;;;;;;;-145.94;59.12;76351.75;5117659;28;20633;-69
2023/07/20 08:53:02;;;;;;;1.67;1.67;;;;;;;-145.94;58.76;76341.56;5117501;28;20223;-69
2023/07/20 08:55:30;;;;;;;1.80;1.80;;;;;;;-145.94;58.43;76333.41;5117324;28;20553;-69
2023/07/20 08:57:58;;;;;;;2.23;2.20;;;;;;;-145.94;59.48;76321.16;5117209;28;20655;-69
2023/07/20 09:00:26;;;;;;;1.47;1.47;;;;;;;-145.94;59.08;76317.09;5117519;28;20593;-69
2023/07/20 09:02:53;;;;;;;1.30;1.30;;;;;;;-145.94;57.90;76325.25;5117097;28;20686;-69
2023/07/20 09:05:22;;;;;;;8.23;1.27;;;;;;;-145.94;57.61;76325.25;5117131;28;20188;-69
2023/07/20 09:07:51;;;;;;;1.40;1.40;;;;;;;-145.94;57.24;76317.09;5117091;28;20217;-69
2023/07/20 09:10:17;;;;;;;2.03;2.03;;;;;;;-145.94;56.78;76302.81;5117062;28;20193;-69
2023/07/20 09:12:45;;;;;;;1.77;1.77;;;;;;;-145.94;55.55;76294.66;5116795;28;20208;-69
2023/07/20 09:15:12;;;;;;;1.37;1.37;;;;;;;-145.94;54.89;76294.66;5116923;28;20687;-69
2023/07/20 09:17:38;;;;;;;1.40;1.40;;;;;;;-145.94;55.05;76282.44;5117443;28;20235;-70
2023/07/20 09:20:10;;;;;;;1.40;1.40;;;;;;;-145.94;54.97;76274.28;5116860;28;20185;-69
2023/07/20 09:22:41;;;;;;;1.67;1.67;;;;;;;-145.94;53.67;76274.28;5116795;28;20209;-69
2023/07/20 09:25:19;;;;;;;3.27;2.07;;;;;;;-145.94;54.12;76272.22;5117068;28;20242;-69
2023/07/20 09:27:49;;;;;;;1.47;1.47;;;;;;;-145.94;53.92;76266.13;5117002;28;20173;-69
2023/07/20 09:30:18;;;;;;;1.40;1.40;;;;;;;-145.94;54.01;76270.19;5116721;28;20189;-69
2023/07/20 09:32:48;;;;;;;1.10;1.10;;;;;;;-145.94;55.22;76260.00;5116303;28;20216;-69
2023/07/20 09:35:20;;;;;;;1.37;1.37;;;;;;;-145.94;55.13;76253.88;5116584;28;20181;-69
2023/07/20 09:37:53;;;;;;;1.10;1.10;;;;;;;-145.94;54.16;76229.41;5116819;28;20169;-69
2023/07/20 09:40:40;;;;;;;1.20;1.20;;;;;;;-145.94;53.89;76243.69;5116744;28;20202;-69
2023/07/20 09:43:10;;;;;;;1.40;1.40;;;;;;;-145.94;52.96;76255.91;5116628;28;20204;-69
2023/07/20 09:45:41;;;;;;;1.10;1.10;;;;;;;-145.94;52.30;76274.28;5116382;28;20638;-69
2023/07/20 09:48:12;;;;;;;1.13;1.13;;;;;;;-145.94;53.33;76266.13;5116330;28;20638;-69
2023/07/20 09:50:48;;;;;;;1.17;1.17;;;;;;;-145.94;52.28;76264.06;5116597;28;20588;-69
2023/07/20 09:53:14;;;;;;;1.17;1.17;;;;;;;-145.94;50.55;76257.97;5116123;28;20261;-69
2023/07/20 09:55:42;;;;;;;1.07;1.07;;;;;;;-145.94;52.21;76245.72;5098136;28;20272;-68
2023/07/20 09:58:09;;;;;;;1.10;1.10;;;;;;;-145.94;52.57;76223.28;5116623;28;20200;-68
2023/07/20 10:00:38;;;;;;;1.10;1.10;;;;;;;-145.94;52.75;76198.81;5116372;28;20182;-69
2023/07/20 10:03:09;;;;;;;1.17;1.17;;;;;;;-145.94;52.30;76194.75;5116005;28;20198;-69
2023/07/20 10:05:42;;;;;;;1.20;1.20;;;;;;;-145.94;52.12;76192.72;5116205;28;20258;-69
2023/07/20 10:08:12;;;;;;;2.03;2.03;;;;;;;-145.94;52.86;76196.78;5116169;28;20177;-69
2023/07/20 10:10:45;;;;;;;1.50;1.40;;;;;;;-145.94;52.92;76207.00;5097629;28;20547;-69
2023/07/20 10:13:26;;;;;;;1.80;1.80;;;;;;;-145.94;52.95;76198.81;5116368;28;20730;-68
2023/07/20 10:16:04;;;;;;;1.70;1.70;;;;;;;-145.94;51.03;76200.88;5116078;28;20172;-68
2023/07/20 10:18:44;;;;;;;1.40;1.40;;;;;;;-145.94;51.67;76202.91;5115990;28;20620;-69
2023/07/20 10:21:12;;;;;;;1.63;1.53;;;;;;;-145.94;50.49;76198.81;5116266;28;20215;-69
2023/07/20 10:23:41;;;;;;;1.30;1.30;;;;;;;-145.94;50.05;76180.47;5115608;28;20201;-69
2023/07/20 10:26:09;;;;;;;1.40;1.40;;;;;;;-145.94;49.55;76182.53;5115541;28;20185;-69
2023/07/20 10:28:37;;;;;;;1.30;1.30;;;;;;;-145.94;51.36;76166.22;5115772;28;20196;-69
2023/07/20 10:31:05;;;;;;;2.10;0.90;;;;;;;-145.94;51.26;76164.16;5115436;28;20651;-69
2023/07/20 10:33:32;;;;;;;1.17;1.17;;;;;;;-145.94;50.95;76164.16;5115861;28;20240;-69
2023/07/20 10:36:05;;;;;;;1.00;1.00;;;;;;;-145.94;49.97;76153.97;5115321;28;20177;-69
2023/07/20 10:38:51;;;;;;;1.00;1.00;;;;;;;-145.94;49.62;76145.81;5097098;28;20193;-69
2023/07/20 10:41:29;;;;;;;1.13;1.13;;;;;;;-145.94;49.48;76143.78;5115529;28;20177;-69
2023/07/20 10:44:00;;;;;;;1.20;1.20;;;;;;;-145.94;49.64;76105.03;5114762;28;20169;-69
2023/07/20 10:46:35;;;;;;;1.03;1.03;;;;;;;-145.94;47.69;76103.00;5115476;28;20181;-69
2023/07/20 10:49:06;;;;;;;1.20;1.20;;;;;;;-145.94;47.85;76109.13;5115162;28;20176;-69
2023/07/20 10:51:44;;;;;;;1.00;1.00;;;;;;;-145.94;47.40;76111.16;5115175;28;20189;-70
2023/07/20 10:54:17;;;;;;;1.40;1.40;;;;;;;-145.94;47.59;76113.19;5115313;28;20537;-70
2023/07/20 10:56:47;;;;;;;1.03;1.03;;;;;;;-145.94;46.55;76111.16;5115552;28;20177;-69
2023/07/20 10:59:23;;;;;;;1.20;1.10;;;;;;;-145.94;49.60;76096.88;5115491;28;20173;-70
2023/07/20 11:01:55;;;;;;;1.23;1.23;;;;;;;-145.94;49.37;76076.50;5115132;28;20238;-70
2023/07/20 11:04:41;;;;;;;3.40;1.20;;;;;;;-145.94;49.28;76080.56;5115084;28;20604;-69
2023/07/20 11:07:07;;;;;;;1.93;1.27;;;;;;;-145.94;48.91;76072.44;5115278;28;20166;-69
2023/07/20 11:09:38;;;;;;;1.30;1.30;;;;;;;-145.94;47.48;76070.38;5114717;28;20227;-69
2023/07/20 11:12:18;;;;;;;1.83;1.33;;;;;;;-145.94;47.22;76076.50;5114922;28;20220;-69
2023/07/20 11:14:57;;;;;;;1.13;1.13;;;;;;;-145.94;47.50;76078.53;5114559;28;20592;-69
2023/07/20 11:17:31;;;;;;;1.10;1.10;;;;;;;-145.94;46.63;76072.44;5115172;28;20264;-68
2023/07/20 11:20:00;;;;;;;0.97;0.97;;;;;;;-145.94;47.28;76058.16;5096508;28;20181;-69